Time;durP1;ratioP1;P1;durP2;ratioP2;P2;SDS_P1;SDS_P2;PMS_P1;PMS_P2;Temp;Humidity;BMP_temperature;BMP_pressure;BME280_temperature;BME280_humidity;BME280_pressure;Samples;Min_cycle;Max_cycle;Signal;HPM_P1;HPM_P2
2022/07/22 00:00:05;;;;;;;8.43;4.47;;;16.20;99.90;;;;;;5092309;28;20040;-25
2022/07/22 00:02:31;;;;;;;7.05;4.18;;;16.20;99.90;;;;;;5075744;28;20032;-25
2022/07/22 00:04:57;;;;;;;8.45;3.85;;;16.10;99.90;;;;;;5092433;28;20089;-25
2022/07/22 00:07:23;;;;;;;9.20;4.32;;;16.20;99.90;;;;;;5075434;28;20476;-25
2022/07/22 00:09:49;;;;;;;9.07;4.90;;;16.10;99.90;;;;;;5075319;28;20054;-25
2022/07/22 00:12:15;;;;;;;13.60;4.72;;;16.10;99.90;;;;;;5092407;28;20319;-25
2022/07/22 00:14:41;;;;;;;9.75;4.53;;;16.10;99.90;;;;;;5058310;28;20119;-25
2022/07/22 00:17:07;;;;;;;9.95;4.00;;;16.10;99.90;;;;;;5091852;28;20043;-25
2022/07/22 00:19:33;;;;;;;8.60;4.70;;;16.10;99.90;;;;;;5092515;28;20028;-25
2022/07/22 00:21:59;;;;;;;10.23;4.25;;;16.10;99.90;;;;;;5074609;28;20455;-25
2022/07/22 00:24:28;;;;;;;10.80;4.63;;;16.10;99.90;;;;;;5075427;28;20024;-25
2022/07/22 00:26:53;;;;;;;15.50;5.40;;;16.00;99.90;;;;;;5075650;28;20028;-25
2022/07/22 00:29:19;;;;;;;11.07;4.85;;;16.00;99.90;;;;;;5074977;28;20089;-25
2022/07/22 00:31:45;;;;;;;12.02;4.72;;;16.00;99.90;;;;;;5068516;28;20162;-25
2022/07/22 00:34:11;;;;;;;9.85;4.70;;;16.00;99.90;;;;;;5072599;28;20028;-25
2022/07/22 00:36:36;;;;;;;8.68;4.38;;;16.00;99.90;;;;;;5074818;28;20066;-36
2022/07/22 00:39:03;;;;;;;10.68;4.40;;;16.00;99.90;;;;;;5074766;28;20390;-25
2022/07/22 00:41:29;;;;;;;10.85;4.60;;;16.00;99.90;;;;;;5088507;28;20420;-26
2022/07/22 00:43:59;;;;;;;10.70;4.40;;;16.00;99.90;;;;;;5075187;28;20028;-25
2022/07/22 00:46:26;;;;;;;9.20;4.57;;;16.00;99.90;;;;;;5087643;28;20043;-25
2022/07/22 00:48:52;;;;;;;13.00;4.95;;;16.00;99.90;;;;;;5074523;28;20040;-26
2022/07/22 00:51:19;;;;;;;9.15;4.47;;;16.00;99.90;;;;;;5074663;28;20501;-25
2022/07/22 00:53:46;;;;;;;8.98;4.30;;;16.00;99.90;;;;;;5074212;28;20036;-25
2022/07/22 00:56:15;;;;;;;10.88;4.00;;;16.00;99.90;;;;;;5074446;28;20040;-25
2022/07/22 00:58:42;;;;;;;10.30;4.43;;;16.00;99.90;;;;;;5074804;28;20146;-25
2022/07/22 01:01:08;;;;;;;11.70;5.15;;;16.00;99.90;;;;;;5092565;28;20115;-27
2022/07/22 01:03:33;;;;;;;10.90;4.60;;;16.00;99.90;;;;;;5074411;28;20064;-25
2022/07/22 01:05:59;;;;;;;13.05;4.68;;;16.00;99.90;;;;;;5093253;28;20039;-25
2022/07/22 01:08:26;;;;;;;11.82;4.40;;;16.00;99.90;;;;;;5073859;28;20036;-25
2022/07/22 01:10:52;;;;;;;8.48;4.15;;;16.00;99.90;;;;;;5074102;28;20036;-25
2022/07/22 01:13:17;;;;;;;6.72;3.72;;;16.00;99.90;;;;;;5074681;28;20047;-25
2022/07/22 01:15:43;;;;;;;10.38;4.43;;;15.90;99.90;;;;;;5070898;28;20048;-25
2022/07/22 01:18:09;;;;;;;8.00;4.18;;;15.90;99.90;;;;;;5071471;28;20075;-25
2022/07/22 01:20:36;;;;;;;8.18;4.13;;;15.90;99.90;;;;;;5074408;28;20039;-26
2022/07/22 01:23:02;;;;;;;8.85;3.97;;;16.00;99.90;;;;;;5074429;28;20036;-25
2022/07/22 01:25:27;;;;;;;8.35;4.20;;;15.90;99.90;;;;;;5057319;28;20546;-28
2022/07/22 01:27:53;;;;;;;11.32;5.25;;;15.90;99.90;;;;;;5068095;28;20044;-25
2022/07/22 01:30:19;;;;;;;8.80;4.20;;;16.00;99.90;;;;;;5073967;28;20449;-25
2022/07/22 01:32:45;;;;;;;7.75;4.07;;;15.90;99.90;;;;;;5073891;28;20039;-25
2022/07/22 01:35:11;;;;;;;9.10;4.32;;;16.00;99.90;;;;;;5073340;28;20096;-25
2022/07/22 01:37:37;;;;;;;9.00;4.38;;;15.90;99.90;;;;;;5057004;28;20048;-25
2022/07/22 01:40:04;;;;;;;7.60;4.28;;;15.90;99.90;;;;;;5073730;28;20047;-25
2022/07/22 01:42:29;;;;;;;7.25;3.90;;;15.90;99.90;;;;;;5074349;28;20082;-25
2022/07/22 01:44:55;;;;;;;10.65;4.10;;;15.90;99.90;;;;;;5073931;28;20124;-25
2022/07/22 01:47:21;;;;;;;6.63;4.38;;;15.90;99.90;;;;;;5073780;28;20384;-26
2022/07/22 01:49:47;;;;;;;9.10;4.00;;;15.90;99.90;;;;;;5090710;28;20540;-26
2022/07/22 01:52:12;;;;;;;9.13;3.95;;;15.90;99.90;;;;;;5073869;28;20446;-25
2022/07/22 01:54:38;;;;;;;6.35;3.78;;;15.90;99.90;;;;;;5073455;28;20090;-25
2022/07/22 01:57:04;;;;;;;9.80;4.25;;;15.90;99.90;;;;;;5073869;28;20488;-25
2022/07/22 01:59:30;;;;;;;11.40;4.57;;;15.90;99.90;;;;;;5075140;28;20071;-25
2022/07/22 02:01:55;;;;;;;8.45;4.07;;;15.90;99.90;;;;;;5074081;28;20415;-25
2022/07/22 02:04:21;;;;;;;13.98;3.95;;;15.90;99.90;;;;;;5091396;28;20362;-25
2022/07/22 02:06:47;;;;;;;8.60;4.15;;;15.80;99.90;;;;;;5073990;28;20465;-25
2022/07/22 02:09:13;;;;;;;10.32;4.72;;;15.90;99.90;;;;;;5072078;28;20052;-28
2022/07/22 02:11:39;;;;;;;5.03;3.30;;;15.80;99.90;;;;;;5090581;28;20067;-28
2022/07/22 02:14:05;;;;;;;9.15;3.88;;;15.80;99.90;;;;;;5072361;28;20047;-28
2022/07/22 02:16:31;;;;;;;11.32;4.38;;;15.80;99.90;;;;;;5085645;28;20032;-28
2022/07/22 02:18:57;;;;;;;9.45;3.88;;;15.80;99.90;;;;;;5068466;28;20438;-28
2022/07/22 02:21:23;;;;;;;7.40;3.75;;;15.80;99.90;;;;;;5071204;28;20039;-28
2022/07/22 02:23:49;;;;;;;9.70;3.83;;;15.80;99.90;;;;;;5071954;28;20039;-28
2022/07/22 02:26:15;;;;;;;9.63;3.78;;;15.80;99.90;;;;;;5072366;28;20393;-28
2022/07/22 02:28:41;;;;;;;9.90;3.92;;;15.70;99.90;;;;;;5084491;28;20040;-28
2022/07/22 02:31:07;;;;;;;7.28;3.80;;;15.80;99.90;;;;;;5068795;28;20047;-28
2022/07/22 02:33:33;;;;;;;8.95;3.75;;;15.70;99.90;;;;;;5082618;28;20382;-28
2022/07/22 02:35:58;;;;;;;10.02;3.95;;;15.80;99.90;;;;;;5072647;28;20123;-28
2022/07/22 02:38:24;;;;;;;8.77;4.18;;;15.70;99.90;;;;;;5068629;28;20040;-28
2022/07/22 02:40:50;;;;;;;8.95;3.70;;;15.70;99.90;;;;;;5075557;28;20062;-28
2022/07/22 02:43:16;;;;;;;10.13;3.50;;;15.70;99.90;;;;;;5066788;28;20473;-28
2022/07/22 02:45:41;;;;;;;7.00;3.97;;;15.70;99.90;;;;;;5070912;28;20111;-28
2022/07/22 02:48:07;;;;;;;9.65;3.53;;;15.60;99.90;;;;;;5076353;28;20032;-28
2022/07/22 02:50:33;;;;;;;7.30;3.50;;;15.60;99.90;;;;;;5070958;28;20082;-28
2022/07/22 02:52:59;;;;;;;7.03;3.08;;;15.60;99.90;;;;;;5077175;28;20392;-28
2022/07/22 02:55:25;;;;;;;7.82;3.90;;;15.60;99.90;;;;;;5101811;28;20032;-28
2022/07/22 02:57:50;;;;;;;6.13;3.05;;;15.60;99.90;;;;;;5070512;28;20028;-28
2022/07/22 03:00:17;;;;;;;7.18;3.45;;;15.60;99.90;;;;;;5091700;28;20081;-28
2022/07/22 03:02:43;;;;;;;9.75;3.35;;;15.50;99.90;;;;;;5081260;28;20496;-29
2022/07/22 03:05:09;;;;;;;8.88;3.38;;;15.60;99.90;;;;;;5073392;28;20119;-28
2022/07/22 03:07:35;;;;;;;8.60;3.50;;;15.60;99.90;;;;;;5068984;28;20076;-28
2022/07/22 03:10:01;;;;;;;7.50;3.42;;;15.60;99.90;;;;;;5077229;28;20070;-28
2022/07/22 03:12:27;;;;;;;9.45;3.28;;;15.50;99.90;;;;;;5075223;28;20111;-28
2022/07/22 03:14:53;;;;;;;9.05;3.42;;;15.50;99.90;;;;;;5078967;28;20116;-28
2022/07/22 03:17:19;;;;;;;7.97;3.20;;;15.50;99.90;;;;;;5078655;28;20044;-28
2022/07/22 03:19:44;;;;;;;5.85;3.13;;;15.60;99.90;;;;;;5080637;28;20040;-28
2022/07/22 03:22:10;;;;;;;6.18;2.80;;;15.50;99.90;;;;;;5073963;28;20036;-28
2022/07/22 03:24:36;;;;;;;11.73;3.38;;;15.50;99.90;;;;;;5097339;28;20039;-28
2022/07/22 03:27:02;;;;;;;8.43;3.05;;;15.50;99.90;;;;;;5079160;28;20043;-28
2022/07/22 03:29:27;;;;;;;6.53;3.20;;;15.50;99.90;;;;;;5076351;28;20475;-28
2022/07/22 03:31:53;;;;;;;10.40;3.70;;;15.50;99.90;;;;;;5097608;28;20036;-28
2022/07/22 03:34:19;;;;;;;8.43;2.90;;;15.50;99.90;;;;;;5078237;28;20384;-28
2022/07/22 03:36:44;;;;;;;6.63;2.75;;;15.50;99.90;;;;;;5096087;28;20028;-27
2022/07/22 03:39:10;;;;;;;5.70;2.70;;;15.50;99.90;;;;;;5078134;28;20056;-27
2022/07/22 03:41:36;;;;;;;6.93;3.13;;;15.50;99.90;;;;;;5095426;28;20036;-27
2022/07/22 03:44:02;;;;;;;8.57;2.85;;;15.50;99.90;;;;;;5080776;28;20051;-27
2022/07/22 03:46:28;;;;;;;7.10;2.90;;;15.50;99.90;;;;;;5083482;28;20031;-27
2022/07/22 03:48:53;;;;;;;6.05;3.15;;;15.50;99.90;;;;;;5077230;28;20067;-27
2022/07/22 03:51:19;;;;;;;9.85;3.65;;;15.50;99.90;;;;;;5078886;28;20050;-27
2022/07/22 03:53:45;;;;;;;7.13;3.08;;;15.50;99.90;;;;;;5069725;28;20130;-28
2022/07/22 03:56:11;;;;;;;8.48;3.30;;;15.50;99.90;;;;;;5061341;28;20051;-27
2022/07/22 03:58:37;;;;;;;8.10;3.35;;;15.50;99.90;;;;;;5078615;28;20222;-27
2022/07/22 04:01:03;;;;;;;6.82;3.10;;;15.50;99.90;;;;;;5083883;28;20500;-27
2022/07/22 04:03:29;;;;;;;9.77;3.08;;;15.50;99.90;;;;;;5088461;28;20035;-27
2022/07/22 04:05:54;;;;;;;6.85;2.85;;;15.50;99.90;;;;;;5094662;28;20063;-27
2022/07/22 04:08:20;;;;;;;8.05;3.70;;;15.50;99.90;;;;;;5077836;28;20036;-27
2022/07/22 04:10:46;;;;;;;8.65;3.00;;;15.50;99.90;;;;;;5088332;28;20044;-28
2022/07/22 04:13:12;;;;;;;11.45;3.60;;;15.50;99.90;;;;;;5078753;28;20388;-28
2022/07/22 04:15:38;;;;;;;7.70;3.08;;;15.50;99.90;;;;;;5076839;28;20036;-28
2022/07/22 04:18:04;;;;;;;6.15;2.83;;;15.50;99.90;;;;;;5089367;28;20043;-27
2022/07/22 04:20:30;;;;;;;5.32;3.33;;;15.50;99.90;;;;;;5092571;28;20043;-28
2022/07/22 04:22:55;;;;;;;6.72;3.50;;;15.50;99.90;;;;;;5076536;28;20397;-28
2022/07/22 04:25:21;;;;;;;8.05;3.00;;;15.50;99.90;;;;;;5072572;28;20476;-27
2022/07/22 04:27:47;;;;;;;6.90;2.85;;;15.60;99.90;;;;;;5073598;28;20063;-28
2022/07/22 04:30:13;;;;;;;6.28;2.90;;;15.60;99.90;;;;;;5093799;28;20035;-27
2022/07/22 04:32:38;;;;;;;7.80;3.22;;;15.60;99.90;;;;;;5089385;28;20132;-28
2022/07/22 04:35:05;;;;;;;4.65;3.05;;;15.60;99.90;;;;;;5090945;28;20119;-27
2022/07/22 04:37:30;;;;;;;8.80;2.95;;;15.60;99.90;;;;;;5073372;28;20047;-28
2022/07/22 04:39:56;;;;;;;7.15;3.10;;;15.70;99.90;;;;;;5077804;28;20028;-28
2022/07/22 04:42:22;;;;;;;8.18;3.47;;;15.70;99.90;;;;;;5078939;28;20028;-28
2022/07/22 04:44:48;;;;;;;5.75;3.40;;;15.70;99.90;;;;;;5063643;28;20028;-27
2022/07/22 04:47:13;;;;;;;6.30;2.90;;;15.70;99.90;;;;;;5083068;28;20028;-28
2022/07/22 04:49:39;;;;;;;7.55;2.90;;;15.70;99.90;;;;;;5077178;28;20074;-28
2022/07/22 04:52:05;;;;;;;8.30;2.88;;;15.70;99.90;;;;;;5093562;28;20042;-28
2022/07/22 04:54:31;;;;;;;6.95;3.10;;;15.70;99.90;;;;;;5090519;28;20033;-28
2022/07/22 04:56:57;;;;;;;8.50;2.88;;;15.80;99.90;;;;;;5097485;28;20029;-28
2022/07/22 04:59:23;;;;;;;7.93;3.08;;;15.80;99.90;;;;;;5078000;28;20044;-28
2022/07/22 05:01:49;;;;;;;6.40;3.05;;;15.80;99.90;;;;;;5089108;28;20472;-28
2022/07/22 05:04:15;;;;;;;8.00;3.47;;;15.90;99.90;;;;;;5076064;28;20039;-28
2022/07/22 05:06:41;;;;;;;7.88;3.08;;;15.90;99.90;;;;;;5092361;28;20032;-28
2022/07/22 05:09:07;;;;;;;8.68;2.83;;;15.90;99.90;;;;;;5070543;28;20046;-28
2022/07/22 05:11:33;;;;;;;5.65;2.70;;;15.90;99.90;;;;;;5098230;28;20042;-28
2022/07/22 05:13:58;;;;;;;9.38;2.80;;;15.90;99.90;;;;;;5079688;28;20089;-28
2022/07/22 05:16:24;;;;;;;6.05;3.15;;;16.00;99.90;;;;;;5076672;28;20119;-28
2022/07/22 05:18:50;;;;;;;7.47;3.10;;;15.90;99.90;;;;;;5079633;28;20301;-28
2022/07/22 05:21:16;;;;;;;7.50;3.22;;;16.00;99.90;;;;;;5076897;28;20032;-28
2022/07/22 05:23:42;;;;;;;7.47;3.15;;;16.00;99.90;;;;;;5098440;28;20035;-28
2022/07/22 05:26:09;;;;;;;4.63;2.80;;;16.00;99.90;;;;;;5074760;28;20058;-28
2022/07/22 05:28:35;;;;;;;7.68;3.03;;;16.00;99.90;;;;;;5093984;28;20122;-28
2022/07/22 05:31:00;;;;;;;4.57;3.15;;;16.00;99.90;;;;;;5077290;28;20067;-28
2022/07/22 05:33:26;;;;;;;5.20;2.60;;;16.00;99.90;;;;;;5074525;28;20123;-27
2022/07/22 05:35:52;;;;;;;6.82;2.95;;;16.00;99.90;;;;;;5079481;28;20043;-28
2022/07/22 05:38:18;;;;;;;7.50;2.92;;;16.10;99.90;;;;;;5073677;28;20515;-28
2022/07/22 05:40:45;;;;;;;6.50;2.85;;;16.10;99.90;;;;;;5079005;28;20115;-28
2022/07/22 05:43:10;;;;;;;8.43;2.80;;;16.10;99.90;;;;;;5074494;28;20047;-28
2022/07/22 05:45:36;;;;;;;5.35;2.80;;;16.10;99.90;;;;;;5073978;28;20040;-28
2022/07/22 05:48:02;;;;;;;5.63;2.88;;;16.20;99.90;;;;;;5071163;28;20116;-29
2022/07/22 05:50:28;;;;;;;6.38;2.75;;;16.20;99.90;;;;;;5083651;28;20039;-28
2022/07/22 05:52:54;;;;;;;4.93;2.60;;;16.30;99.90;;;;;;5093959;28;20493;-28
2022/07/22 05:55:21;;;;;;;7.65;3.45;;;16.30;99.90;;;;;;5065628;28;20050;-28
2022/07/22 05:57:46;;;;;;;4.78;2.58;;;16.40;99.90;;;;;;5073415;28;20378;-29
2022/07/22 06:00:13;;;;;;;6.32;2.80;;;16.50;99.90;;;;;;5071942;28;20105;-28
2022/07/22 06:02:38;;;;;;;5.75;2.45;;;16.40;99.90;;;;;;5073403;28;20054;-28
2022/07/22 06:05:04;;;;;;;6.63;3.00;;;16.50;99.90;;;;;;5073161;28;20111;-28
2022/07/22 06:07:31;;;;;;;10.43;2.72;;;16.60;99.90;;;;;;5076827;28;20434;-28
2022/07/22 06:09:57;;;;;;;5.35;2.75;;;16.60;99.90;;;;;;5072054;28;20068;-28
2022/07/22 06:12:23;;;;;;;6.28;2.40;;;16.60;99.90;;;;;;5071227;28;20694;-28
2022/07/22 06:14:49;;;;;;;5.28;2.63;;;16.60;99.90;;;;;;5072538;28;20107;-28
2022/07/22 06:17:15;;;;;;;7.25;2.47;;;16.70;99.90;;;;;;5071613;28;20124;-28
2022/07/22 06:19:41;;;;;;;5.55;3.10;;;16.70;99.90;;;;;;5093049;28;20040;-29
2022/07/22 06:22:07;;;;;;;5.03;2.65;;;16.80;99.90;;;;;;5075314;28;20047;-29
2022/07/22 06:24:32;;;;;;;3.28;2.20;;;16.80;99.90;;;;;;5077232;28;20048;-28
2022/07/22 06:26:58;;;;;;;11.40;2.70;;;16.80;99.90;;;;;;5076935;28;20044;-29
2022/07/22 06:29:24;;;;;;;4.35;2.50;;;16.90;99.90;;;;;;5074983;28;20032;-28
2022/07/22 06:31:50;;;;;;;7.22;2.60;;;16.80;99.90;;;;;;5060137;28;20542;-28
2022/07/22 06:34:19;;;;;;;9.80;2.72;;;16.80;99.90;;;;;;5077602;28;20047;-29
2022/07/22 06:36:45;;;;;;;5.72;2.72;;;16.80;99.90;;;;;;5077281;28;20040;-28
2022/07/22 06:39:11;;;;;;;5.90;2.63;;;16.90;99.90;;;;;;5075286;28;20044;-28
2022/07/22 06:41:37;;;;;;;8.63;2.72;;;16.90;99.90;;;;;;5076220;28;20405;-30
2022/07/22 06:44:05;;;;;;;6.43;2.42;;;16.90;99.90;;;;;;5073916;28;20043;-28
2022/07/22 06:46:30;;;;;;;6.70;2.50;;;17.00;99.90;;;;;;5060933;28;20044;-28
2022/07/22 06:48:56;;;;;;;4.63;2.30;;;17.00;99.90;;;;;;5081052;28;20493;-27
2022/07/22 06:51:22;;;;;;;5.32;2.60;;;17.20;99.90;;;;;;5077845;28;20047;-28
2022/07/22 06:53:48;;;;;;;4.10;2.28;;;17.30;99.90;;;;;;5090620;28;20036;-28
2022/07/22 06:56:14;;;;;;;7.57;2.28;;;17.40;99.90;;;;;;5073997;28;20079;-29
2022/07/22 06:58:39;;;;;;;6.88;2.92;;;17.50;99.90;;;;;;5103759;28;20428;-28
2022/07/22 07:01:05;;;;;;;6.75;2.60;;;17.50;99.90;;;;;;5060295;28;20634;-28
2022/07/22 07:03:31;;;;;;;7.07;2.80;;;17.60;99.90;;;;;;5075641;28;20059;-28
2022/07/22 07:05:57;;;;;;;3.28;2.08;;;17.60;99.90;;;;;;5072916;28;20115;-28
2022/07/22 07:08:23;;;;;;;6.22;2.28;;;17.70;99.90;;;;;;5075655;28;20186;-28
2022/07/22 07:10:48;;;;;;;5.55;2.30;;;17.80;99.90;;;;;;5074621;28;20032;-29
2022/07/22 07:13:14;;;;;;;4.53;2.33;;;17.80;99.90;;;;;;5072300;28;20063;-28
2022/07/22 07:15:40;;;;;;;8.32;2.55;;;17.80;99.90;;;;;;5073437;28;20039;-29
2022/07/22 07:18:06;;;;;;;5.15;2.83;;;17.80;99.90;;;;;;5074638;28;20090;-28
2022/07/22 07:20:32;;;;;;;5.28;2.35;;;18.00;99.90;;;;;;5075956;28;20315;-29
2022/07/22 07:23:01;;;;;;;4.75;2.05;;;18.00;99.90;;;;;;5072720;28;20040;-29
2022/07/22 07:25:27;;;;;;;6.07;2.28;;;18.00;99.90;;;;;;5074423;28;20035;-29
2022/07/22 07:27:53;;;;;;;6.70;2.50;;;18.10;99.90;;;;;;5056023;28;20040;-29
2022/07/22 07:30:19;;;;;;;6.55;2.47;;;18.10;99.90;;;;;;5073439;28;20488;-28
2022/07/22 07:32:45;;;;;;;5.13;2.28;;;18.20;99.90;;;;;;5072700;28;20446;-28
2022/07/22 07:35:11;;;;;;;5.40;2.00;;;18.40;99.90;;;;;;5074153;28;20485;-29
2022/07/22 07:37:37;;;;;;;7.85;2.33;;;18.40;99.90;;;;;;5092919;28;20043;-28
2022/07/22 07:40:04;;;;;;;3.80;2.25;;;18.50;99.90;;;;;;5070198;28;20115;-28
2022/07/22 07:42:30;;;;;;;3.72;1.92;;;18.50;99.90;;;;;;5074645;28;20405;-28
2022/07/22 07:44:56;;;;;;;5.90;1.92;;;18.50;99.90;;;;;;5075989;28;20032;-29
2022/07/22 07:47:22;;;;;;;5.45;2.58;;;18.50;99.90;;;;;;5077379;28;20124;-28
2022/07/22 07:49:48;;;;;;;5.53;2.20;;;18.60;99.90;;;;;;5076655;28;20043;-28
2022/07/22 07:52:15;;;;;;;4.95;2.10;;;18.50;99.90;;;;;;5077961;28;20032;-29
2022/07/22 07:54:41;;;;;;;3.28;1.90;;;18.60;99.90;;;;;;5077959;28;20133;-29
2022/07/22 07:57:10;;;;;;;6.00;2.08;;;18.50;99.90;;;;;;5074838;28;20033;-28
2022/07/22 07:59:36;;;;;;;5.03;2.08;;;18.60;99.90;;;;;;5058463;28;20449;-28
2022/07/22 08:02:02;;;;;;;5.53;2.25;;;18.60;99.90;;;;;;5099286;28;20032;-28
2022/07/22 08:04:28;;;;;;;6.78;2.55;;;18.50;99.90;;;;;;5072647;28;20050;-28
2022/07/22 08:06:54;;;;;;;5.50;2.10;;;18.60;99.90;;;;;;5077998;28;20032;-28
2022/07/22 08:09:20;;;;;;;4.97;1.83;;;18.60;99.90;;;;;;5076530;28;20476;-28
2022/07/22 08:11:45;;;;;;;5.32;2.00;;;18.50;99.90;;;;;;5088619;28;20301;-28
2022/07/22 08:14:11;;;;;;;5.15;1.98;;;18.40;99.90;;;;;;5099150;28;20033;-29
2022/07/22 08:16:37;;;;;;;7.82;2.22;;;18.50;99.90;;;;;;5071372;28;20382;-29
2022/07/22 08:19:03;;;;;;;5.05;2.15;;;18.60;99.90;;;;;;5070089;28;20052;-28
2022/07/22 08:21:29;;;;;;;4.45;1.80;;;18.70;99.90;;;;;;5070296;28;20036;-29
2022/07/22 08:23:55;;;;;;;3.38;1.85;;;19.00;99.90;;;;;;5054375;28;20232;-28
2022/07/22 08:26:21;;;;;;;5.93;1.83;;;19.20;99.90;;;;;;5096362;28;20039;-29
2022/07/22 08:28:47;;;;;;;4.07;1.70;;;19.30;99.90;;;;;;5076666;28;20436;-26
2022/07/22 08:31:13;;;;;;;5.32;1.70;;;19.30;99.90;;;;;;5075919;28;20046;-26
2022/07/22 08:33:38;;;;;;;4.00;1.60;;;19.40;99.90;;;;;;5075687;28;20118;-26
2022/07/22 08:36:04;;;;;;;3.17;1.70;;;19.40;99.90;;;;;;5075441;28;20039;-26
2022/07/22 08:38:31;;;;;;;2.85;1.60;;;19.40;99.90;;;;;;5075428;28;20040;-26
2022/07/22 08:40:57;;;;;;;4.43;1.75;;;19.40;99.90;;;;;;5075685;28;20404;-26
2022/07/22 08:43:24;;;;;;;5.03;1.70;;;19.40;99.90;;;;;;5074422;28;20040;-26
2022/07/22 08:45:50;;;;;;;3.92;1.83;;;19.40;99.90;;;;;;5074203;28;20064;-26
2022/07/22 08:48:16;;;;;;;5.75;2.05;;;19.40;99.90;;;;;;5074893;28;20381;-26
2022/07/22 08:50:42;;;;;;;3.45;1.70;;;19.30;99.90;;;;;;5074911;28;20044;-26
2022/07/22 08:53:12;;;;;;;2.13;1.80;;;19.30;99.90;;;;;;5075282;28;20031;-26
2022/07/22 08:55:43;;;;;;;4.78;1.75;;;19.10;99.90;;;;;;5075364;28;20119;-26
2022/07/22 08:58:09;;;;;;;3.95;1.40;;;19.00;99.90;;;;;;5074940;28;20115;-26
2022/07/22 09:00:35;;;;;;;2.72;1.55;;;19.00;99.90;;;;;;5075187;28;20085;-26
2022/07/22 09:03:21;;;;;;;3.25;2.00;;;18.90;99.90;;;;;;5075059;28;20067;-26
2022/07/22 09:05:48;;;;;;;5.53;1.80;;;19.00;99.90;;;;;;5074730;28;20040;-26
2022/07/22 09:08:14;;;;;;;1.92;1.35;;;19.00;99.90;;;;;;5074869;28;20541;-26
2022/07/22 09:10:40;;;;;;;3.85;1.67;;;19.00;99.90;;;;;;5091941;28;20044;-26
2022/07/22 09:13:08;;;;;;;5.90;1.80;;;19.00;99.90;;;;;;5074644;28;20174;-26
2022/07/22 09:15:45;;;;;;;4.05;1.60;;;19.00;99.90;;;;;;5074746;28;20036;-26
2022/07/22 09:18:11;;;;;;;2.10;1.58;;;19.10;99.90;;;;;;5074300;28;20133;-26
2022/07/22 09:20:38;;;;;;;4.72;1.77;;;19.10;99.90;;;;;;5074629;28;20036;-26
2022/07/22 09:23:17;;;;;;;3.88;1.83;;;19.10;99.90;;;;;;5091218;28;20028;-26
2022/07/22 09:25:43;;;;;;;3.22;1.85;;;19.20;99.90;;;;;;5057872;28;20044;-26
2022/07/22 09:28:12;;;;;;;3.80;1.70;;;19.30;99.90;;;;;;5074836;28;20396;-26
2022/07/22 09:30:39;;;;;;;2.65;1.52;;;19.30;99.90;;;;;;5074068;28;20043;-26
2022/07/22 09:33:06;;;;;;;1.98;1.45;;;19.20;99.90;;;;;;5091514;28;20040;-26
2022/07/22 09:35:32;;;;;;;2.55;1.63;;;19.20;99.90;;;;;;5074291;28;20039;-26
2022/07/22 09:38:04;;;;;;;3.03;1.50;;;19.20;99.90;;;;;;5090942;28;20075;-26
2022/07/22 09:40:34;;;;;;;6.03;1.83;;;19.20;99.90;;;;;;5074273;28;20047;-26
2022/07/22 09:43:04;;;;;;;4.50;1.98;;;19.20;99.90;;;;;;5074234;28;20068;-26
2022/07/22 09:45:31;;;;;;;5.03;1.83;;;19.30;99.90;;;;;;5074604;28;20036;-26
2022/07/22 09:47:59;;;;;;;3.85;1.65;;;19.30;99.90;;;;;;5074266;28;20068;-26
2022/07/22 09:50:27;;;;;;;5.00;1.80;;;19.40;99.90;;;;;;5074371;28;20042;-26
2022/07/22 09:52:55;;;;;;;4.55;1.95;;;19.50;99.90;;;;;;5074068;28;20043;-25
2022/07/22 09:55:23;;;;;;;4.88;2.28;;;19.60;99.90;;;;;;5074274;28;20051;-26
2022/07/22 09:57:50;;;;;;;3.50;1.90;;;19.50;99.90;;;;;;5074145;28;20051;-26
2022/07/22 10:00:18;;;;;;;4.82;2.33;;;19.40;99.90;;;;;;5074126;28;20036;-25
2022/07/22 10:02:55;;;;;;;5.18;1.85;;;19.40;99.90;;;;;;5057544;28;20119;-26
2022/07/22 10:05:42;;;;;;;2.60;1.73;;;19.50;99.90;;;;;;5090233;28;20036;-26
2022/07/22 10:08:09;;;;;;;2.10;1.65;;;19.70;99.90;;;;;;5052344;28;20040;-26
2022/07/22 10:10:36;;;;;;;4.15;1.65;;;19.70;99.90;;;;;;5073227;28;20118;-26
2022/07/22 10:13:03;;;;;;;3.88;1.52;;;19.90;99.90;;;;;;5071572;28;20036;-26
2022/07/22 10:15:31;;;;;;;3.10;1.63;;;20.10;99.90;;;;;;5072637;28;20484;-26
2022/07/22 10:18:00;;;;;;;1.70;1.25;;;20.30;99.90;;;;;;5072812;28;20059;-26
2022/07/22 10:20:28;;;;;;;5.65;1.63;;;20.50;99.90;;;;;;5072749;28;20394;-26
2022/07/22 10:23:03;;;;;;;6.32;1.73;;;20.70;99.90;;;;;;5090138;28;20028;-26
2022/07/22 10:25:32;;;;;;;2.45;1.60;;;20.90;99.90;;;;;;5092216;28;20047;-26
2022/07/22 10:28:03;;;;;;;6.78;2.17;;;21.20;99.90;;;;;;5068075;28;20047;-26
2022/07/22 10:30:40;;;;;;;5.28;1.98;;;21.60;99.90;;;;;;5080775;28;20032;-26
2022/07/22 10:33:15;;;;;;;3.55;1.40;;;21.80;99.90;;;;;;5066228;28;20504;-26
2022/07/22 10:35:59;;;;;;;3.65;1.50;;;21.90;99.90;;;;;;5072766;28;20489;-26
2022/07/22 10:39:10;;;;;;;4.30;1.48;;;21.90;99.90;;;;;;5073038;28;20063;-26
2022/07/22 10:41:45;;;;;;;3.42;1.35;;;21.90;99.90;;;;;;5083863;28;20059;-26
2022/07/22 10:44:11;;;;;;;2.95;1.38;;;21.80;99.90;;;;;;5068541;28;20082;-26
2022/07/22 10:46:58;;;;;;;2.45;1.50;;;21.50;99.90;;;;;;5064611;28;20036;-28
2022/07/22 10:49:25;;;;;;;2.47;1.42;;;21.30;99.90;;;;;;5073348;28;20197;-27
2022/07/22 10:52:10;;;;;;;1.98;1.48;;;21.10;99.90;;;;;;5087878;28;20119;-27
2022/07/22 10:55:31;;;;;;;2.30;1.58;;;21.00;99.90;;;;;;5065205;28;20331;-26
2022/07/22 10:57:57;;;;;;;3.25;1.30;;;20.90;99.90;;;;;;4972853;28;20085;-27
2022/07/22 11:00:23;;;;;;;2.33;1.48;;;20.80;99.90;;;;;;5069513;28;20048;-26
2022/07/22 11:02:49;;;;;;;2.33;1.45;;;20.80;99.90;;;;;;5070974;28;20052;-26
2022/07/22 11:05:25;;;;;;;3.35;1.60;;;20.80;99.90;;;;;;5072584;28;20500;-27
2022/07/22 11:10:24;;;;;;;2.47;1.42;;;20.60;99.90;;;;;;5057117;28;20500;-29
2022/07/22 11:12:50;;;;;;;1.70;1.20;;;20.40;99.90;;;;;;5055127;28;20032;-28
2022/07/22 11:15:16;;;;;;;1.85;1.40;;;20.30;99.90;;;;;;5041105;28;20131;-27
2022/07/22 11:17:42;;;;;;;3.75;1.55;;;20.30;99.90;;;;;;5052498;28;20250;-27
2022/07/22 11:20:11;;;;;;;2.95;1.30;;;20.30;99.90;;;;;;5043841;28;20503;-26
2022/07/22 11:22:38;;;;;;;1.85;1.25;;;20.20;99.90;;;;;;5056341;28;20032;-26
2022/07/22 11:25:06;;;;;;;2.83;1.50;;;20.10;99.90;;;;;;5056769;28;20076;-27
2022/07/22 11:27:33;;;;;;;3.20;1.75;;;20.00;99.90;;;;;;5053204;28;20111;-27
2022/07/22 11:29:59;;;;;;;4.18;1.73;;;20.00;99.90;;;;;;5052261;28;20639;-26
2022/07/22 11:32:31;;;;;;;3.42;1.50;;;19.90;99.90;;;;;;5054487;28;20111;-28
2022/07/22 11:34:58;;;;;;;4.47;1.60;;;20.00;99.90;;;;;;5049783;28;20072;-28
2022/07/22 11:37:26;;;;;;;3.75;1.40;;;20.10;99.90;;;;;;5049434;28;20094;-28
2022/07/22 11:40:00;;;;;;;5.40;2.22;;;20.20;99.90;;;;;;5048601;28;20083;-28
2022/07/22 11:42:27;;;;;;;2.47;1.23;;;20.20;99.90;;;;;;5046009;28;20040;-28
2022/07/22 11:44:54;;;;;;;3.47;1.50;;;20.20;99.90;;;;;;5031477;28;20489;-27
2022/07/22 11:47:21;;;;;;;2.38;1.20;;;20.20;99.90;;;;;;5050087;28;20419;-27
2022/07/22 11:49:48;;;;;;;4.30;1.60;;;20.10;99.90;;;;;;5032501;28;20041;-28
2022/07/22 11:52:14;;;;;;;6.25;1.80;;;19.90;99.90;;;;;;5051096;28;20513;-27
2022/07/22 11:54:41;;;;;;;2.17;1.52;;;19.80;99.90;;;;;;5051092;28;20067;-28
2022/07/22 11:57:07;;;;;;;3.10;2.00;;;19.70;99.90;;;;;;5047689;28;20036;-28
2022/07/22 11:59:34;;;;;;;3.92;1.73;;;19.60;99.90;;;;;;5052893;28;20033;-27
2022/07/22 12:02:02;;;;;;;3.88;2.05;;;19.60;99.90;;;;;;5033636;28;20048;-27
2022/07/22 12:04:28;;;;;;;2.78;1.65;;;19.70;99.90;;;;;;5036782;28;20068;-27
2022/07/22 12:06:57;;;;;;;3.75;1.95;;;19.70;99.90;;;;;;5035935;28;20033;-27
2022/07/22 12:09:26;;;;;;;3.97;1.30;;;19.70;99.90;;;;;;5070453;28;20047;-28
2022/07/22 12:11:55;;;;;;;2.20;1.67;;;19.80;99.90;;;;;;5071560;28;20047;-27
2022/07/22 12:14:27;;;;;;;6.10;2.25;;;19.80;99.90;;;;;;5071658;28;20043;-27
2022/07/22 12:17:10;;;;;;;3.90;1.73;;;19.70;99.90;;;;;;5055560;28;20059;-28
2022/07/22 12:19:38;;;;;;;4.15;1.70;;;19.70;99.90;;;;;;5073996;28;20039;-27
2022/07/22 12:22:13;;;;;;;3.17;1.75;;;19.70;99.90;;;;;;5073666;28;20085;-27
2022/07/22 12:24:44;;;;;;;3.67;1.85;;;19.80;99.90;;;;;;5081346;28;20043;-27
2022/07/22 12:27:18;;;;;;;3.10;1.70;;;19.80;99.90;;;;;;5059554;28;20388;-28
2022/07/22 12:29:48;;;;;;;;;;;19.90;99.90;;;;;;5075765;28;20493;-28
2022/07/22 12:32:25;;;;;;;2.35;1.42;;;19.90;99.90;;;;;;5080963;28;19916;-28
2022/07/22 12:34:53;;;;;;;1.67;1.50;;;20.00;99.90;;;;;;5063922;28;20044;-28
2022/07/22 12:37:24;;;;;;;5.27;2.23;;;20.10;99.90;;;;;;5068691;28;20408;-28
2022/07/22 12:39:55;;;;;;;3.92;1.80;;;20.10;99.90;;;;;;5073471;28;20183;-28
2022/07/22 12:42:22;;;;;;;3.95;1.67;;;20.20;99.90;;;;;;5073754;28;20044;-28
2022/07/22 12:44:59;;;;;;;2.40;1.58;;;20.20;99.90;;;;;;5073759;28;20056;-28
2022/07/22 12:47:49;;;;;;;3.15;1.58;;;20.30;99.90;;;;;;5071108;28;20044;-28